createdAt,value
2022-12-31T00:02:02.879Z,2.74
2022-12-31T00:06:19.966Z,2.66
2022-12-31T00:10:21.751Z,2.85
2022-12-31T00:14:23.773Z,2.79
2022-12-31T00:18:26.941Z,2.76
2022-12-31T00:22:28.979Z,2.70
2022-12-31T00:26:33.015Z,2.65
2022-12-31T00:30:35.083Z,2.66
2022-12-31T00:34:36.886Z,2.58
2022-12-31T00:38:40.183Z,2.49
2022-12-31T00:42:41.876Z,2.57
2022-12-31T00:50:45.848Z,2.56
2022-12-31T00:54:47.789Z,2.59
2022-12-31T00:58:50.712Z,2.67
2022-12-31T01:02:52.868Z,2.51
2022-12-31T01:06:54.774Z,2.61
2022-12-31T01:11:15.231Z,2.73
2022-12-31T01:15:16.966Z,2.59
2022-12-31T01:19:22.167Z,2.70
2022-12-31T01:23:23.950Z,2.67
2022-12-31T01:27:25.939Z,2.65
2022-12-31T01:31:28.379Z,2.62
2022-12-31T01:35:30.127Z,2.49
2022-12-31T01:39:32.143Z,2.81
2022-12-31T01:43:42.915Z,2.55
2022-12-31T01:47:48.916Z,2.48
2022-12-31T01:52:00.442Z,2.58
2022-12-31T01:56:03.151Z,2.43
2022-12-31T02:00:06.543Z,2.75
2022-12-31T02:04:12.982Z,2.84
2022-12-31T02:08:15.933Z,2.89
2022-12-31T02:12:17.876Z,2.95
2022-12-31T02:16:30.850Z,3.08
2022-12-31T02:20:53.336Z,3.15
2022-12-31T02:25:12.681Z,3.00
2022-12-31T02:29:26.566Z,2.96
2022-12-31T02:33:35.432Z,3.02
2022-12-31T02:37:41.836Z,2.57
2022-12-31T02:41:51.477Z,3.02
2022-12-31T02:46:21.084Z,3.20
2022-12-31T02:50:41.268Z,3.27
2022-12-31T02:55:06.460Z,3.23
2022-12-31T02:59:37.904Z,3.24
2022-12-31T03:03:40.575Z,3.39
2022-12-31T03:07:43.745Z,3.41
2022-12-31T03:12:15.985Z,3.38
2022-12-31T03:16:17.755Z,3.58
2022-12-31T03:20:40.382Z,3.59
2022-12-31T03:25:00.731Z,3.59
2022-12-31T03:29:02.626Z,3.64
2022-12-31T03:33:06.094Z,3.82
2022-12-31T03:37:08.014Z,3.98
2022-12-31T03:41:11.081Z,4.08
2022-12-31T03:45:13.921Z,4.21
2022-12-31T03:49:15.735Z,4.26
2022-12-31T03:53:17.848Z,4.30
2022-12-31T03:57:19.524Z,4.31
2022-12-31T04:01:24.323Z,4.57
2022-12-31T04:05:26.264Z,4.59
2022-12-31T04:09:28.211Z,4.69
2022-12-31T04:13:30.041Z,4.76
2022-12-31T04:17:32.162Z,4.87
2022-12-31T04:21:35.296Z,4.94
2022-12-31T04:25:37.348Z,5.13
2022-12-31T04:29:39.333Z,5.15
2022-12-31T04:33:41.227Z,5.34
2022-12-31T04:37:42.881Z,5.34
2022-12-31T04:41:44.814Z,5.45
2022-12-31T04:45:46.663Z,5.61
2022-12-31T04:49:48.711Z,5.68
2022-12-31T04:53:50.723Z,5.68
2022-12-31T04:57:52.677Z,5.66
2022-12-31T05:01:55.268Z,5.77
2022-12-31T05:06:09.509Z,5.64
2022-12-31T05:10:11.332Z,5.84
2022-12-31T05:14:13.647Z,5.85
2022-12-31T05:18:15.475Z,5.88
2022-12-31T05:22:29.290Z,6.00
2022-12-31T05:26:31.270Z,5.91
2022-12-31T05:30:33.150Z,6.00
2022-12-31T05:34:35.261Z,6.15
2022-12-31T05:38:37.734Z,6.24
2022-12-31T05:42:39.812Z,6.20
2022-12-31T05:46:41.622Z,6.27
2022-12-31T05:50:43.516Z,6.25
2022-12-31T05:54:45.169Z,6.35
2022-12-31T05:58:47.291Z,6.41
2022-12-31T06:02:49.198Z,6.46
2022-12-31T06:06:51.596Z,6.47
2022-12-31T06:10:53.530Z,6.44
2022-12-31T06:14:55.523Z,6.50
2022-12-31T06:18:57.217Z,6.59
2022-12-31T06:22:59.860Z,6.60
2022-12-31T06:27:01.687Z,6.67
2022-12-31T06:31:06.695Z,6.80
2022-12-31T06:35:08.700Z,6.73
2022-12-31T06:39:10.679Z,6.80
2022-12-31T06:43:12.382Z,6.83
2022-12-31T06:47:15.805Z,6.71
2022-12-31T06:51:20.326Z,6.83
2022-12-31T06:55:22.837Z,6.81
2022-12-31T06:59:29.658Z,6.91
2022-12-31T07:03:43.767Z,7.05
2022-12-31T07:08:18.285Z,7.18
2022-12-31T07:12:34.268Z,7.38
2022-12-31T07:16:54.372Z,7.45
2022-12-31T07:20:56.588Z,7.62
2022-12-31T07:24:58.916Z,7.64
2022-12-31T07:29:07.926Z,7.67
2022-12-31T07:33:36.225Z,7.86
2022-12-31T07:37:59.530Z,8.08
2022-12-31T07:42:24.177Z,8.00
2022-12-31T07:46:35.793Z,8.08
2022-12-31T07:50:38.922Z,8.17
2022-12-31T07:54:40.894Z,8.17
2022-12-31T07:59:06.477Z,8.27
2022-12-31T08:03:24.494Z,8.33
2022-12-31T08:07:48.716Z,8.40
2022-12-31T08:11:59.262Z,8.49
2022-12-31T08:16:02.550Z,8.56
2022-12-31T08:20:05.602Z,8.62
2022-12-31T08:24:30.315Z,8.71
2022-12-31T08:28:52.037Z,8.66
2022-12-31T08:33:13.625Z,8.65
2022-12-31T08:37:36.654Z,8.66
2022-12-31T08:41:45.433Z,8.74
2022-12-31T08:45:52.876Z,8.76
2022-12-31T08:49:55.706Z,8.83
2022-12-31T08:53:58.522Z,8.93
2022-12-31T08:58:20.598Z,8.91
2022-12-31T09:02:42.062Z,8.86
2022-12-31T09:06:59.758Z,8.95
2022-12-31T09:11:22.888Z,9.10
2022-12-31T09:15:41.252Z,9.21
2022-12-31T09:19:43.294Z,9.26
2022-12-31T09:23:45.518Z,9.42
2022-12-31T09:28:11.407Z,9.63
2022-12-31T09:32:25.872Z,9.74
2022-12-31T09:36:34.371Z,9.78
2022-12-31T09:41:11.445Z,9.78
2022-12-31T09:45:52.014Z,9.85
2022-12-31T09:49:57.167Z,9.70
2022-12-31T09:54:17.650Z,9.47
2022-12-31T09:58:28.748Z,9.12
2022-12-31T10:02:59.611Z,9.61
2022-12-31T10:07:35.548Z,9.11
2022-12-31T10:12:14.882Z,9.69
2022-12-31T10:16:31.605Z,9.69
2022-12-31T10:20:47.772Z,9.50
2022-12-31T10:25:00.354Z,10.10
2022-12-31T10:29:36.129Z,9.94
2022-12-31T10:33:54.592Z,10.57
2022-12-31T10:38:02.318Z,10.30
2022-12-31T10:42:50.572Z,10.59
2022-12-31T10:47:01.592Z,11.10
2022-12-31T10:51:20.471Z,11.05
2022-12-31T10:55:31.699Z,10.94
2022-12-31T10:59:59.106Z,11.19
2022-12-31T11:04:07.171Z,11.13
2022-12-31T11:08:17.668Z,11.29
2022-12-31T11:12:41.160Z,11.44
2022-12-31T11:17:00.854Z,11.38
2022-12-31T11:21:24.609Z,11.43
2022-12-31T11:25:41.779Z,11.60
2022-12-31T11:30:11.448Z,11.94
2022-12-31T11:34:31.875Z,11.92
2022-12-31T11:38:40.912Z,11.82
2022-12-31T11:42:56.700Z,11.63
2022-12-31T11:47:17.517Z,11.12
2022-12-31T11:51:25.519Z,11.60
2022-12-31T11:55:41.283Z,11.76
2022-12-31T11:59:43.249Z,11.70
2022-12-31T12:03:45.585Z,11.96
2022-12-31T12:07:48.776Z,12.00
2022-12-31T12:11:59.805Z,11.90
2022-12-31T12:16:06.318Z,11.91
2022-12-31T12:20:32.850Z,11.94
2022-12-31T12:24:34.809Z,12.25
2022-12-31T12:28:45.924Z,12.19
2022-12-31T12:32:59.262Z,12.18
2022-12-31T12:37:02.228Z,12.28
2022-12-31T12:41:09.856Z,12.23
2022-12-31T12:45:17.209Z,11.94
2022-12-31T12:49:26.269Z,11.49
2022-12-31T12:53:38.948Z,11.37
2022-12-31T12:58:22.232Z,11.27
2022-12-31T13:02:40.791Z,11.38
2022-12-31T13:06:54.700Z,11.62
2022-12-31T13:11:15.736Z,11.55
2022-12-31T13:15:33.764Z,11.71
2022-12-31T13:19:52.481Z,11.81
2022-12-31T13:24:00.639Z,11.70
2022-12-31T13:28:07.699Z,11.85
2022-12-31T13:32:15.742Z,11.88
2022-12-31T13:36:21.316Z,11.97
2022-12-31T13:40:47.323Z,12.08
2022-12-31T13:44:59.291Z,12.21
2022-12-31T13:49:04.970Z,12.18
2022-12-31T13:53:20.240Z,12.18
2022-12-31T13:57:43.106Z,12.16
2022-12-31T14:01:52.275Z,12.32
2022-12-31T14:06:03.101Z,12.13
2022-12-31T14:10:13.541Z,12.29
2022-12-31T14:14:54.326Z,12.27
2022-12-31T14:19:05.206Z,12.21
2022-12-31T14:23:16.221Z,12.24
2022-12-31T14:27:32.995Z,12.26
2022-12-31T14:31:53.771Z,12.48
2022-12-31T14:36:19.835Z,12.37
2022-12-31T14:40:37.809Z,12.42
2022-12-31T14:44:55.046Z,12.61
2022-12-31T14:49:34.310Z,12.25
2022-12-31T14:53:36.276Z,12.39
2022-12-31T14:58:17.131Z,12.14
2022-12-31T15:02:03.198Z,12.55
2022-12-31T15:06:23.682Z,12.68
2022-12-31T15:10:48.131Z,12.47
2022-12-31T15:15:04.824Z,12.67
2022-12-31T15:19:30.075Z,12.80
2022-12-31T15:23:37.896Z,12.90
2022-12-31T15:27:42.482Z,12.91
2022-12-31T15:31:47.026Z,12.99
2022-12-31T15:35:52.171Z,13.13
2022-12-31T15:40:07.360Z,13.13
2022-12-31T15:44:23.079Z,13.34
2022-12-31T15:48:51.643Z,13.29
2022-12-31T15:52:54.317Z,13.44
2022-12-31T15:56:56.332Z,13.53
2022-12-31T16:01:19.474Z,13.53
2022-12-31T16:05:27.938Z,13.49
2022-12-31T16:09:35.815Z,13.41
2022-12-31T16:13:42.050Z,13.54
2022-12-31T16:17:45.218Z,13.27
2022-12-31T16:21:47.066Z,13.40
2022-12-31T16:25:50.862Z,13.86
2022-12-31T16:30:00.550Z,13.81
2022-12-31T16:34:12.625Z,13.50
2022-12-31T16:38:19.181Z,13.36
2022-12-31T16:42:22.633Z,13.53
2022-12-31T16:46:28.563Z,13.54
2022-12-31T16:50:30.648Z,13.81
2022-12-31T16:54:36.608Z,13.77
2022-12-31T16:58:45.169Z,13.61
2022-12-31T17:02:59.127Z,13.61
2022-12-31T17:07:29.372Z,13.69
2022-12-31T17:11:35.504Z,13.60
2022-12-31T17:15:43.194Z,13.67
2022-12-31T17:19:51.197Z,13.76
2022-12-31T17:24:02.014Z,13.65
2022-12-31T17:28:07.143Z,13.49
2022-12-31T17:32:17.853Z,13.70
2022-12-31T17:36:23.667Z,13.86
2022-12-31T17:40:54.157Z,13.86
2022-12-31T17:45:00.026Z,13.84
2022-12-31T17:49:02.993Z,13.94
2022-12-31T17:53:14.937Z,13.75
2022-12-31T17:57:27.097Z,13.85
2022-12-31T18:01:29.019Z,13.67
2022-12-31T18:05:31.034Z,13.84
2022-12-31T18:09:32.784Z,13.73
2022-12-31T18:13:35.285Z,13.72
2022-12-31T18:17:37.252Z,13.82
2022-12-31T18:21:39.391Z,13.96
2022-12-31T18:29:41.981Z,13.94
2022-12-31T18:33:44.251Z,13.95
2022-12-31T18:37:46.698Z,13.89
2022-12-31T18:41:51.992Z,14.04
2022-12-31T18:45:53.983Z,14.00
2022-12-31T18:49:55.973Z,14.10
2022-12-31T18:53:57.885Z,14.11
2022-12-31T18:57:59.983Z,14.16
2022-12-31T19:02:01.790Z,14.19
2022-12-31T19:06:04.003Z,14.25
2022-12-31T19:10:06.258Z,14.05
2022-12-31T19:14:24.845Z,14.15
2022-12-31T19:18:26.437Z,14.27
2022-12-31T19:22:28.478Z,14.18
2022-12-31T19:26:30.196Z,14.18
2022-12-31T19:30:34.195Z,14.29
2022-12-31T19:34:36.096Z,14.16
2022-12-31T19:38:38.105Z,14.18
2022-12-31T19:42:39.877Z,14.24
2022-12-31T19:46:41.845Z,14.14
2022-12-31T19:50:46.252Z,14.11
2022-12-31T19:54:48.470Z,13.99
2022-12-31T19:58:50.245Z,14.17
2022-12-31T20:02:52.372Z,14.03
2022-12-31T20:06:54.151Z,13.95
2022-12-31T20:10:58.892Z,14.02
2022-12-31T20:15:00.622Z,13.96
2022-12-31T20:19:02.809Z,13.93
2022-12-31T20:23:04.568Z,13.77
2022-12-31T20:27:07.417Z,13.89
2022-12-31T20:31:11.857Z,13.74
2022-12-31T20:35:13.943Z,13.69
2022-12-31T20:39:15.936Z,13.53
2022-12-31T20:43:17.667Z,13.64
2022-12-31T20:47:19.652Z,13.61
2022-12-31T20:51:23.436Z,13.41
2022-12-31T20:55:25.616Z,13.39
2022-12-31T20:59:27.748Z,13.32
2022-12-31T21:04:03.754Z,13.33
2022-12-31T21:07:52.003Z,13.43
2022-12-31T21:12:12.689Z,13.37
2022-12-31T21:16:14.443Z,13.39
2022-12-31T21:20:16.642Z,13.39
2022-12-31T21:24:23.569Z,13.32
2022-12-31T21:28:26.366Z,13.37
2022-12-31T21:32:28.136Z,13.35
2022-12-31T21:36:30.162Z,13.12
2022-12-31T21:40:32.363Z,13.19
2022-12-31T21:44:34.313Z,13.27
2022-12-31T21:48:36.374Z,13.33
2022-12-31T21:52:38.052Z,13.51
2022-12-31T21:56:40.083Z,13.39
2022-12-31T22:01:00.642Z,13.34
2022-12-31T22:05:04.827Z,13.41
2022-12-31T22:09:10.183Z,13.46
2022-12-31T22:13:13.750Z,13.63
2022-12-31T22:17:15.450Z,13.79
2022-12-31T22:21:23.103Z,13.88
2022-12-31T22:25:24.831Z,13.86
2022-12-31T22:29:26.799Z,13.88
2022-12-31T22:33:28.538Z,13.89
2022-12-31T22:41:52.457Z,13.92
2022-12-31T22:45:54.496Z,13.93
2022-12-31T22:49:56.296Z,13.78
2022-12-31T22:53:58.315Z,13.74
2022-12-31T22:57:59.922Z,13.60
2022-12-31T23:02:02.077Z,13.38
2022-12-31T23:06:07.098Z,13.51
2022-12-31T23:10:29.642Z,13.38
2022-12-31T23:14:52.591Z,13.34
2022-12-31T23:19:13.010Z,13.06
2022-12-31T23:23:16.318Z,13.01
2022-12-31T23:27:18.443Z,12.60
2022-12-31T23:31:20.122Z,12.85
2022-12-31T23:35:22.257Z,13.00
2022-12-31T23:39:24.037Z,12.94
2022-12-31T23:43:26.039Z,12.97
2022-12-31T23:47:27.770Z,12.83
2022-12-31T23:51:29.830Z,13.02
2022-12-31T23:55:32.167Z,12.95
2022-12-31T23:59:34.121Z,13.03
